sensor_id;sensor_type;location;lat;lon;timestamp;pressure;altitude;pressure_sealevel;temperature;humidity
17505;BME280;8870;50.950;11.762;2023-08-06T00:00:17;97612.72;;;15.61;100.00
17505;BME280;8870;50.950;11.762;2023-08-06T00:05:50;97603.97;;;15.52;100.00
17505;BME280;8870;50.950;11.762;2023-08-06T00:11:09;97601.75;;;15.36;100.00
17505;BME280;8870;50.950;11.762;2023-08-06T00:16:40;97598.22;;;15.22;100.00
17505;BME280;8870;50.950;11.762;2023-08-06T00:22:01;97596.16;;;15.10;100.00
17505;BME280;8870;50.950;11.762;2023-08-06T00:27:32;97598.03;;;15.03;100.00
17505;BME280;8870;50.950;11.762;2023-08-06T00:32:51;97584.47;;;14.97;100.00
17505;BME280;8870;50.950;11.762;2023-08-06T00:38:24;97585.75;;;14.94;100.00
17505;BME280;8870;50.950;11.762;2023-08-06T00:43:43;97588.44;;;14.94;100.00
17505;BME280;8870;50.950;11.762;2023-08-06T00:49:15;97587.59;;;14.93;100.00
17505;BME280;8870;50.950;11.762;2023-08-06T00:54:51;97574.03;;;14.93;100.00
17505;BME280;8870;50.950;11.762;2023-08-06T01:00:11;97567.16;;;14.91;100.00
17505;BME280;8870;50.950;11.762;2023-08-06T01:05:43;97558.00;;;14.85;100.00
17505;BME280;8870;50.950;11.762;2023-08-06T01:11:14;97544.44;;;14.78;100.00
17505;BME280;8870;50.950;11.762;2023-08-06T01:16:49;97517.78;;;14.75;100.00
17505;BME280;8870;50.950;11.762;2023-08-06T01:22:11;97532.97;;;14.76;100.00
17505;BME280;8870;50.950;11.762;2023-08-06T01:27:44;97538.81;;;14.80;100.00
17505;BME280;8870;50.950;11.762;2023-08-06T01:33:05;97532.97;;;14.76;100.00
17505;BME280;8870;50.950;11.762;2023-08-06T01:38:38;97542.59;;;14.79;100.00
17505;BME280;8870;50.950;11.762;2023-08-06T01:43:57;97539.03;;;14.78;100.00
17505;BME280;8870;50.950;11.762;2023-08-06T01:49:28;97533.81;;;14.84;100.00
17505;BME280;8870;50.950;11.762;2023-08-06T01:55:03;97529.00;;;14.86;100.00
17505;BME280;8870;50.950;11.762;2023-08-06T02:00:22;97526.91;;;14.88;100.00
17505;BME280;8870;50.950;11.762;2023-08-06T02:05:53;97524.19;;;14.88;100.00
17505;BME280;8870;50.950;11.762;2023-08-06T02:11:14;97522.56;;;14.87;100.00
17505;BME280;8870;50.950;11.762;2023-08-06T02:16:45;97506.28;;;14.87;100.00
17505;BME280;8870;50.950;11.762;2023-08-06T02:22:05;97509.41;;;14.84;100.00
17505;BME280;8870;50.950;11.762;2023-08-06T02:27:39;97512.31;;;14.82;100.00
17505;BME280;8870;50.950;11.762;2023-08-06T02:32:58;97504.81;;;14.77;100.00
17505;BME280;8870;50.950;11.762;2023-08-06T02:38:29;97497.72;;;14.76;100.00
17505;BME280;8870;50.950;11.762;2023-08-06T02:43:50;97501.50;;;14.75;100.00
17505;BME280;8870;50.950;11.762;2023-08-06T02:49:21;97506.06;;;14.75;100.00
17505;BME280;8870;50.950;11.762;2023-08-06T02:54:39;97517.56;;;14.70;100.00
17505;BME280;8870;50.950;11.762;2023-08-06T03:00:16;97508.78;;;14.68;100.00
17505;BME280;8870;50.950;11.762;2023-08-06T03:05:36;97518.56;;;14.62;100.00
17505;BME280;8870;50.950;11.762;2023-08-06T03:11:27;97520.47;;;14.55;100.00
17505;BME280;8870;50.950;11.762;2023-08-06T03:16:51;97521.09;;;14.51;100.00
17505;BME280;8870;50.950;11.762;2023-08-06T03:22:22;97526.50;;;14.44;100.00
17505;BME280;8870;50.950;11.762;2023-08-06T03:27:41;97522.75;;;14.38;100.00
17505;BME280;8870;50.950;11.762;2023-08-06T03:33:16;97527.75;;;14.35;100.00
17505;BME280;8870;50.950;11.762;2023-08-06T03:38:36;97524.59;;;14.31;100.00
17505;BME280;8870;50.950;11.762;2023-08-06T03:44:08;97537.53;;;14.29;100.00
17505;BME280;8870;50.950;11.762;2023-08-06T03:49:36;97542.34;;;14.27;100.00
17505;BME280;8870;50.950;11.762;2023-08-06T03:55:08;97532.94;;;14.23;100.00
17505;BME280;8870;50.950;11.762;2023-08-06T04:00:27;97532.31;;;14.21;100.00
17505;BME280;8870;50.950;11.762;2023-08-06T04:06:02;97529.59;;;14.21;100.00
17505;BME280;8870;50.950;11.762;2023-08-06T04:11:20;97516.47;;;14.17;100.00
17505;BME280;8870;50.950;11.762;2023-08-06T04:16:51;97518.13;;;14.18;100.00
17505;BME280;8870;50.950;11.762;2023-08-06T04:22:12;97507.13;;;14.20;100.00
17505;BME280;8870;50.950;11.762;2023-08-06T04:27:43;97493.56;;;14.20;100.00
17505;BME280;8870;50.950;11.762;2023-08-06T04:33:01;97497.09;;;14.21;100.00
17505;BME280;8870;50.950;11.762;2023-08-06T04:38:36;97500.84;;;14.20;100.00
17505;BME280;8870;50.950;11.762;2023-08-06T04:43:56;97496.47;;;14.18;100.00
17505;BME280;8870;50.950;11.762;2023-08-06T04:49:29;97502.31;;;14.15;100.00
17505;BME280;8870;50.950;11.762;2023-08-06T04:54:50;97522.72;;;14.11;100.00
17505;BME280;8870;50.950;11.762;2023-08-06T05:00:21;97518.75;;;14.07;100.00
17505;BME280;8870;50.950;11.762;2023-08-06T05:05:40;97523.34;;;14.07;100.00
17505;BME280;8870;50.950;11.762;2023-08-06T05:11:01;97517.72;;;14.08;100.00
17505;BME280;8870;50.950;11.762;2023-08-06T05:16:32;97545.66;;;14.09;100.00
17505;BME280;8870;50.950;11.762;2023-08-06T05:21:50;97553.97;;;14.07;100.00
17505;BME280;8870;50.950;11.762;2023-08-06T05:27:25;97555.63;;;14.08;100.00
17505;BME280;8870;50.950;11.762;2023-08-06T05:32:44;97551.06;;;14.09;100.00
17505;BME280;8870;50.950;11.762;2023-08-06T05:38:16;97532.75;;;14.11;100.00
17505;BME280;8870;50.950;11.762;2023-08-06T05:43:37;97526.06;;;14.13;100.00
17505;BME280;8870;50.950;11.762;2023-08-06T05:49:08;97524.41;;;14.12;100.00
17505;BME280;8870;50.950;11.762;2023-08-06T05:54:39;97508.56;;;14.16;100.00
17505;BME280;8870;50.950;11.762;2023-08-06T06:00:13;97509.41;;;14.16;100.00
17505;BME280;8870;50.950;11.762;2023-08-06T06:05:31;97519.41;;;14.23;100.00
17505;BME280;8870;50.950;11.762;2023-08-06T06:11:03;97520.66;;;14.27;100.00
17505;BME280;8870;50.950;11.762;2023-08-06T06:16:24;97518.78;;;14.27;100.00
17505;BME280;8870;50.950;11.762;2023-08-06T06:21:55;97515.66;;;14.37;100.00
17505;BME280;8870;50.950;11.762;2023-08-06T06:27:14;97517.53;;;14.43;100.00
17505;BME280;8870;50.950;11.762;2023-08-06T06:32:48;97501.69;;;14.54;100.00
17505;BME280;8870;50.950;11.762;2023-08-06T06:38:06;97494.59;;;14.59;100.00
17505;BME280;8870;50.950;11.762;2023-08-06T06:43:37;97486.28;;;14.68;100.00
17505;BME280;8870;50.950;11.762;2023-08-06T06:48:59;97486.28;;;14.74;100.00
17505;BME280;8870;50.950;11.762;2023-08-06T06:54:30;97468.94;;;14.82;100.00
17505;BME280;8870;50.950;11.762;2023-08-06T06:59:48;97476.00;;;14.90;100.00
17505;BME280;8870;50.950;11.762;2023-08-06T07:05:24;97472.63;;;15.01;100.00
17505;BME280;8870;50.950;11.762;2023-08-06T07:10:42;97459.50;;;15.05;100.00
17505;BME280;8870;50.950;11.762;2023-08-06T07:16:14;97447.56;;;15.13;100.00
17505;BME280;8870;50.950;11.762;2023-08-06T07:21:35;97434.81;;;15.20;100.00
17505;BME280;8870;50.950;11.762;2023-08-06T07:27:07;97422.88;;;15.28;100.00
17505;BME280;8870;50.950;11.762;2023-08-06T07:32:26;97414.25;;;15.37;100.00
17505;BME280;8870;50.950;11.762;2023-08-06T07:38:00;97406.31;;;15.43;100.00
17505;BME280;8870;50.950;11.762;2023-08-06T07:43:18;97390.81;;;15.50;100.00
17505;BME280;8870;50.950;11.762;2023-08-06T07:48:50;97396.00;;;15.58;100.00
17505;BME280;8870;50.950;11.762;2023-08-06T07:54:24;97391.56;;;15.64;100.00
17505;BME280;8870;50.950;11.762;2023-08-06T07:59:43;97388.16;;;15.75;100.00
17505;BME280;8870;50.950;11.762;2023-08-06T08:05:19;97374.09;;;15.85;100.00
17505;BME280;8870;50.950;11.762;2023-08-06T08:10:40;97350.66;;;15.84;100.00
17505;BME280;8870;50.950;11.762;2023-08-06T08:16:11;97349.41;;;15.93;100.00
17505;BME280;8870;50.950;11.762;2023-08-06T08:21:29;97354.91;;;16.05;100.00
17505;BME280;8870;50.950;11.762;2023-08-06T08:27:03;97341.28;;;16.12;100.00
17505;BME280;8870;50.950;11.762;2023-08-06T08:32:21;97342.44;;;16.23;100.00
17505;BME280;8870;50.950;11.762;2023-08-06T08:37:52;97338.75;;;16.36;100.00
17505;BME280;8870;50.950;11.762;2023-08-06T08:43:14;97316.00;;;16.48;100.00
17505;BME280;8870;50.950;11.762;2023-08-06T08:48:45;97316.47;;;16.64;100.00
17505;BME280;8870;50.950;11.762;2023-08-06T08:54:04;97306.63;;;16.82;100.00
17505;BME280;8870;50.950;11.762;2023-08-06T08:59:41;97306.00;;;16.98;100.00
17505;BME280;8870;50.950;11.762;2023-08-06T09:05:00;97274.94;;;17.06;100.00
17505;BME280;8870;50.950;11.762;2023-08-06T09:10:32;97276.88;;;17.17;100.00
17505;BME280;8870;50.950;11.762;2023-08-06T09:15:54;97275.47;;;17.27;100.00
17505;BME280;8870;50.950;11.762;2023-08-06T09:21:28;97269.00;;;17.39;100.00
17505;BME280;8870;50.950;11.762;2023-08-06T09:26:46;97261.78;;;17.57;100.00
17505;BME280;8870;50.950;11.762;2023-08-06T09:32:20;97263.22;;;17.71;100.00
17505;BME280;8870;50.950;11.762;2023-08-06T09:37:42;97247.47;;;17.85;100.00
17505;BME280;8870;50.950;11.762;2023-08-06T09:43:13;97241.09;;;18.04;100.00
17505;BME280;8870;50.950;11.762;2023-08-06T09:48:34;97243.09;;;18.08;100.00
17505;BME280;8870;50.950;11.762;2023-08-06T09:54:06;97244.28;;;18.12;100.00
17505;BME280;8870;50.950;11.762;2023-08-06T09:59:37;97229.34;;;18.27;100.00
17505;BME280;8870;50.950;11.762;2023-08-06T10:05:12;97221.97;;;18.39;100.00
17505;BME280;8870;50.950;11.762;2023-08-06T10:10:31;97208.28;;;18.51;100.00
17505;BME280;8870;50.950;11.762;2023-08-06T10:16:04;97186.16;;;18.64;100.00
17505;BME280;8870;50.950;11.762;2023-08-06T10:21:26;97185.13;;;18.83;100.00
17505;BME280;8870;50.950;11.762;2023-08-06T10:26:58;97186.53;;;18.97;100.00
17505;BME280;8870;50.950;11.762;2023-08-06T10:32:16;97175.38;;;19.16;100.00
17505;BME280;8870;50.950;11.762;2023-08-06T10:37:50;97157.00;;;19.28;100.00
17505;BME280;8870;50.950;11.762;2023-08-06T10:43:25;97146.16;;;19.33;100.00
17505;BME280;8870;50.950;11.762;2023-08-06T10:48:56;97139.69;;;19.39;100.00
17505;BME280;8870;50.950;11.762;2023-08-06T10:54:33;97124.19;;;19.62;100.00
17505;BME280;8870;50.950;11.762;2023-08-06T10:59:51;97115.88;;;19.74;100.00
17505;BME280;8870;50.950;11.762;2023-08-06T11:05:31;97108.91;;;19.83;100.00
17505;BME280;8870;50.950;11.762;2023-08-06T11:10:52;97103.91;;;19.97;100.00
17505;BME280;8870;50.950;11.762;2023-08-06T11:16:24;97102.31;;;20.01;100.00
17505;BME280;8870;50.950;11.762;2023-08-06T11:21:43;97101.28;;;20.08;100.00
17505;BME280;8870;50.950;11.762;2023-08-06T11:27:17;97093.03;;;20.02;100.00
17505;BME280;8870;50.950;11.762;2023-08-06T11:32:44;97107.91;;;19.73;100.00
17505;BME280;8870;50.950;11.762;2023-08-06T11:38:15;97103.69;;;19.43;100.00
17505;BME280;8870;50.950;11.762;2023-08-06T11:43:37;97098.69;;;19.34;100.00
17505;BME280;8870;50.950;11.762;2023-08-06T11:49:08;97093.75;;;19.36;100.00
17505;BME280;8870;50.950;11.762;2023-08-06T11:54:31;97079.88;;;19.60;100.00
17505;BME280;8870;50.950;11.762;2023-08-06T12:00:07;97079.91;;;19.82;100.00
17505;BME280;8870;50.950;11.762;2023-08-06T12:05:30;97077.81;;;20.12;100.00
17505;BME280;8870;50.950;11.762;2023-08-06T12:11:03;97063.38;;;20.44;100.00
17505;BME280;8870;50.950;11.762;2023-08-06T12:16:24;97057.22;;;20.59;100.00
17505;BME280;8870;50.950;11.762;2023-08-06T12:21:55;97055.59;;;20.58;100.00
17505;BME280;8870;50.950;11.762;2023-08-06T12:27:14;97065.88;;;20.45;100.00
17505;BME280;8870;50.950;11.762;2023-08-06T12:32:49;97060.91;;;20.42;100.00
17505;BME280;8870;50.950;11.762;2023-08-06T12:38:07;97062.97;;;20.57;100.00
17505;BME280;8870;50.950;11.762;2023-08-06T12:43:38;97047.41;;;20.58;100.00
17505;BME280;8870;50.950;11.762;2023-08-06T12:48:59;97042.47;;;20.60;100.00
17505;BME280;8870;50.950;11.762;2023-08-06T12:54:30;97044.28;;;20.76;100.00
17505;BME280;8870;50.950;11.762;2023-08-06T12:59:51;97043.81;;;20.57;100.00
17505;BME280;8870;50.950;11.762;2023-08-06T13:05:25;97055.19;;;20.44;100.00
17505;BME280;8870;50.950;11.762;2023-08-06T13:10:43;97070.59;;;20.00;100.00
17505;BME280;8870;50.950;11.762;2023-08-06T13:16:14;97093.47;;;19.16;100.00
17505;BME280;8870;50.950;11.762;2023-08-06T13:21:59;97095.94;;;19.00;100.00
17505;BME280;8870;50.950;11.762;2023-08-06T13:27:31;97113.78;;;18.74;100.00
17505;BME280;8870;50.950;11.762;2023-08-06T13:32:50;97109.53;;;18.66;100.00
17505;BME280;8870;50.950;11.762;2023-08-06T13:38:24;97101.19;;;18.73;100.00
17505;BME280;8870;50.950;11.762;2023-08-06T13:43:43;97102.41;;;18.94;100.00
17505;BME280;8870;50.950;11.762;2023-08-06T13:49:14;97088.50;;;19.13;100.00
17505;BME280;8870;50.950;11.762;2023-08-06T13:54:48;97119.75;;;19.56;100.00
17505;BME280;8870;50.950;11.762;2023-08-06T14:00:08;97111.53;;;19.95;100.00
17505;BME280;8870;50.950;11.762;2023-08-06T14:05:41;97110.09;;;20.37;100.00
17505;BME280;8870;50.950;11.762;2023-08-06T14:11:02;97087.22;;;20.48;100.00
17505;BME280;8870;50.950;11.762;2023-08-06T14:16:33;97070.41;;;20.35;100.00
17505;BME280;8870;50.950;11.762;2023-08-06T14:21:51;97070.50;;;20.17;100.00
17505;BME280;8870;50.950;11.762;2023-08-06T14:27:25;97079.59;;;19.79;100.00
17505;BME280;8870;50.950;11.762;2023-08-06T14:32:43;97094.38;;;19.21;100.00
17505;BME280;8870;50.950;11.762;2023-08-06T14:38:31;97103.53;;;18.81;100.00
17505;BME280;8870;50.950;11.762;2023-08-06T14:44:09;97091.19;;;18.61;100.00
17505;BME280;8870;50.950;11.762;2023-08-06T14:49:41;97098.28;;;18.45;100.00
17505;BME280;8870;50.950;11.762;2023-08-06T14:55:00;97102.69;;;18.35;100.00
17505;BME280;8870;50.950;11.762;2023-08-06T15:00:34;97113.94;;;18.09;100.00
17505;BME280;8870;50.950;11.762;2023-08-06T15:05:53;97118.13;;;18.00;100.00
17505;BME280;8870;50.950;11.762;2023-08-06T15:11:24;97132.94;;;17.92;100.00
17505;BME280;8870;50.950;11.762;2023-08-06T15:16:48;97137.19;;;17.88;100.00
17505;BME280;8870;50.950;11.762;2023-08-06T15:22:20;97136.00;;;17.96;100.00
17505;BME280;8870;50.950;11.762;2023-08-06T15:27:39;97124.25;;;18.07;100.00
17505;BME280;8870;50.950;11.762;2023-08-06T15:33:13;97110.13;;;18.68;100.00
17505;BME280;8870;50.950;11.762;2023-08-06T15:38:31;97097.09;;;19.21;100.00
17505;BME280;8870;50.950;11.762;2023-08-06T15:44:04;97088.22;;;19.48;100.00
17505;BME280;8870;50.950;11.762;2023-08-06T15:49:24;97092.06;;;20.14;100.00
17505;BME280;8870;50.950;11.762;2023-08-06T15:54:55;97086.09;;;19.95;100.00
17505;BME280;8870;50.950;11.762;2023-08-06T16:00:19;97089.16;;;19.59;100.00
17505;BME280;8870;50.950;11.762;2023-08-06T16:05:52;97101.06;;;19.14;100.00
17505;BME280;8870;50.950;11.762;2023-08-06T16:11:11;97122.06;;;18.79;100.00
17505;BME280;8870;50.950;11.762;2023-08-06T16:16:41;97132.00;;;18.39;100.00
17505;BME280;8870;50.950;11.762;2023-08-06T16:22:03;97142.53;;;18.07;100.00
17505;BME280;8870;50.950;11.762;2023-08-06T16:27:34;97147.91;;;17.66;100.00
17505;BME280;8870;50.950;11.762;2023-08-06T16:32:53;97136.41;;;17.40;100.00
17505;BME280;8870;50.950;11.762;2023-08-06T16:38:27;97166.81;;;17.13;100.00
17505;BME280;8870;50.950;11.762;2023-08-06T16:43:45;97187.16;;;16.99;100.00
17505;BME280;8870;50.950;11.762;2023-08-06T16:49:16;97205.59;;;16.66;100.00
17505;BME280;8870;50.950;11.762;2023-08-06T16:54:38;97204.66;;;16.23;100.00
17505;BME280;8870;50.950;11.762;2023-08-06T17:00:11;97211.56;;;15.82;100.00
17505;BME280;8870;50.950;11.762;2023-08-06T17:05:30;97194.22;;;15.64;100.00
17505;BME280;8870;50.950;11.762;2023-08-06T17:11:03;97237.19;;;15.17;100.00
17505;BME280;8870;50.950;11.762;2023-08-06T17:16:22;97266.69;;;14.74;100.00
17505;BME280;8870;50.950;11.762;2023-08-06T17:21:52;97304.66;;;14.61;100.00
17505;BME280;8870;50.950;11.762;2023-08-06T17:27:13;97342.41;;;14.56;100.00
17505;BME280;8870;50.950;11.762;2023-08-06T17:32:45;97384.34;;;14.40;100.00
17505;BME280;8870;50.950;11.762;2023-08-06T17:38:04;97397.09;;;14.32;100.00
17505;BME280;8870;50.950;11.762;2023-08-06T17:43:37;97402.06;;;14.29;100.00
17505;BME280;8870;50.950;11.762;2023-08-06T17:48:56;97414.78;;;14.28;100.00
17505;BME280;8870;50.950;11.762;2023-08-06T17:54:27;97416.88;;;14.33;100.00
17505;BME280;8870;50.950;11.762;2023-08-06T17:59:47;97436.06;;;14.38;100.00
17505;BME280;8870;50.950;11.762;2023-08-06T18:05:26;97458.53;;;14.45;100.00
17505;BME280;8870;50.950;11.762;2023-08-06T18:10:46;97465.22;;;14.49;100.00
17505;BME280;8870;50.950;11.762;2023-08-06T18:16:19;97476.69;;;14.52;100.00
17505;BME280;8870;50.950;11.762;2023-08-06T18:21:38;97498.78;;;14.48;100.00
17505;BME280;8870;50.950;11.762;2023-08-06T18:27:08;97527.13;;;14.46;100.00
17505;BME280;8870;50.950;11.762;2023-08-06T18:32:34;97541.09;;;14.43;100.00
17505;BME280;8870;50.950;11.762;2023-08-06T18:38:09;97539.41;;;14.35;100.00
17505;BME280;8870;50.950;11.762;2023-08-06T18:43:28;97543.16;;;14.27;100.00
17505;BME280;8870;50.950;11.762;2023-08-06T18:49:01;97498.34;;;14.18;100.00
17505;BME280;8870;50.950;11.762;2023-08-06T18:54:20;97494.38;;;14.07;100.00
17505;BME280;8870;50.950;11.762;2023-08-06T18:59:51;97524.16;;;14.00;100.00
17505;BME280;8870;50.950;11.762;2023-08-06T19:05:11;97541.44;;;13.93;100.00
17505;BME280;8870;50.950;11.762;2023-08-06T19:10:43;97568.06;;;13.89;100.00
17505;BME280;8870;50.950;11.762;2023-08-06T19:16:01;97593.69;;;13.86;100.00
17505;BME280;8870;50.950;11.762;2023-08-06T19:21:34;97604.91;;;13.83;100.00
17505;BME280;8870;50.950;11.762;2023-08-06T19:26:56;97609.28;;;13.78;100.00
17505;BME280;8870;50.950;11.762;2023-08-06T19:32:27;97609.69;;;13.75;100.00
17505;BME280;8870;50.950;11.762;2023-08-06T19:37:48;97598.41;;;13.71;100.00
17505;BME280;8870;50.950;11.762;2023-08-06T19:43:20;97586.34;;;13.67;100.00
17505;BME280;8870;50.950;11.762;2023-08-06T19:48:38;97594.63;;;13.65;100.00
17505;BME280;8870;50.950;11.762;2023-08-06T19:54:12;97593.19;;;13.63;100.00
17505;BME280;8870;50.950;11.762;2023-08-06T19:59:31;97605.69;;;13.64;100.00
17505;BME280;8870;50.950;11.762;2023-08-06T20:05:02;97612.13;;;13.63;100.00
17505;BME280;8870;50.950;11.762;2023-08-06T20:10:22;97617.16;;;13.66;100.00
17505;BME280;8870;50.950;11.762;2023-08-06T20:15:54;97632.09;;;13.62;100.00
17505;BME280;8870;50.950;11.762;2023-08-06T20:21:12;97635.66;;;13.62;100.00
17505;BME280;8870;50.950;11.762;2023-08-06T20:26:45;97640.88;;;13.64;100.00
17505;BME280;8870;50.950;11.762;2023-08-06T20:32:04;97648.16;;;13.63;100.00
17505;BME280;8870;50.950;11.762;2023-08-06T20:37:35;97660.63;;;13.64;100.00
17505;BME280;8870;50.950;11.762;2023-08-06T20:42:56;97664.19;;;13.65;100.00
17505;BME280;8870;50.950;11.762;2023-08-06T20:48:28;97666.03;;;13.64;100.00
17505;BME280;8870;50.950;11.762;2023-08-06T20:53:53;97664.19;;;13.65;100.00
17505;BME280;8870;50.950;11.762;2023-08-06T20:59:26;97680.22;;;13.66;100.00
17505;BME280;8870;50.950;11.762;2023-08-06T21:04:45;97681.25;;;13.65;100.00
17505;BME280;8870;50.950;11.762;2023-08-06T21:10:16;97689.19;;;13.67;100.00
17505;BME280;8870;50.950;11.762;2023-08-06T21:15:36;97692.06;;;13.65;100.00
17505;BME280;8870;50.950;11.762;2023-08-06T21:21:09;97699.38;;;13.65;100.00
17505;BME280;8870;50.950;11.762;2023-08-06T21:26:27;97701.22;;;13.64;100.00
17505;BME280;8870;50.950;11.762;2023-08-06T21:32:00;97714.97;;;13.63;100.00
17505;BME280;8870;50.950;11.762;2023-08-06T21:37:19;97717.69;;;13.63;100.00
17505;BME280;8870;50.950;11.762;2023-08-06T21:42:37;97725.16;;;13.61;100.00
17505;BME280;8870;50.950;11.762;2023-08-06T21:48:10;97718.28;;;13.58;100.00
17505;BME280;8870;50.950;11.762;2023-08-06T21:53:30;97707.84;;;13.55;100.00
17505;BME280;8870;50.950;11.762;2023-08-06T21:59:01;97705.72;;;13.50;100.00
17505;BME280;8870;50.950;11.762;2023-08-06T22:04:21;97717.78;;;13.48;100.00
17505;BME280;8870;50.950;11.762;2023-08-06T22:09:53;97704.47;;;13.46;100.00
17505;BME280;8870;50.950;11.762;2023-08-06T22:15:12;97719.22;;;13.44;100.00
17505;BME280;8870;50.950;11.762;2023-08-06T22:20:46;97712.34;;;13.41;100.00
17505;BME280;8870;50.950;11.762;2023-08-06T22:26:05;97708.13;;;13.38;100.00
17505;BME280;8870;50.950;11.762;2023-08-06T22:31:38;97706.63;;;13.36;100.00
17505;BME280;8870;50.950;11.762;2023-08-06T22:36:58;97706.19;;;13.32;100.00
17505;BME280;8870;50.950;11.762;2023-08-06T22:42:30;97710.78;;;13.32;100.00
17505;BME280;8870;50.950;11.762;2023-08-06T22:47:48;97723.41;;;13.24;100.00
17505;BME280;8870;50.950;11.762;2023-08-06T22:53:21;97740.47;;;13.25;100.00
17505;BME280;8870;50.950;11.762;2023-08-06T22:58:40;97752.53;;;13.22;100.00
17505;BME280;8870;50.950;11.762;2023-08-06T23:04:12;97751.47;;;13.23;100.00
17505;BME280;8870;50.950;11.762;2023-08-06T23:09:33;97749.41;;;13.25;100.00
17505;BME280;8870;50.950;11.762;2023-08-06T23:15:07;97757.34;;;13.27;100.00
17505;BME280;8870;50.950;11.762;2023-08-06T23:20:26;97750.06;;;13.28;100.00
17505;BME280;8870;50.950;11.762;2023-08-06T23:25:59;97753.78;;;13.26;100.00
17505;BME280;8870;50.950;11.762;2023-08-06T23:31:18;97762.13;;;13.25;100.00
17505;BME280;8870;50.950;11.762;2023-08-06T23:36:49;97757.94;;;13.22;100.00
17505;BME280;8870;50.950;11.762;2023-08-06T23:42:09;97767.25;;;13.20;100.00
17505;BME280;8870;50.950;11.762;2023-08-06T23:47:41;97750.81;;;13.15;100.00
17505;BME280;8870;50.950;11.762;2023-08-06T23:52:59;97758.25;;;13.13;100.00
17505;BME280;8870;50.950;11.762;2023-08-06T23:58:32;97754.25;;;13.08;100.00
